Weather History For Prescott AZ
This page updates 5 minutes after midnight. GMT -7
Station: KPRC0 Rows: 26
| Year | Date | Temp (°F) | Tmin (°F) | Tmax (°F) | RH% | Prcp | Snow | Wind | Gust | Pres | Sun | Cloud |
|---|---|---|---|---|---|---|---|---|---|---|---|---|
| 2000 | 2000-04-21 | 61.0 | 52.0 | 73.0 | 26 | — | — | 19.1 | — | 29.78 | — | 3 |
| 2001 | 2001-04-21 | 39.4 | 33.1 | 46.0 | 63 | — | — | 17.2 | — | 29.76 | — | 5 |
| 2002 | 2002-04-21 | 51.4 | 30.2 | 69.8 | 25 | — | — | 9.4 | — | 29.98 | — | 0 |
| 2003 | 2003-04-21 | 54.3 | 44.6 | 62.6 | 36 | — | — | 15.7 | — | 29.75 | — | 1 |
| 2004 | 2004-04-21 | 58.6 | 44.6 | 69.8 | 26 | — | — | 16.3 | — | 29.74 | — | 0 |
| 2005 | 2005-04-21 | 51.3 | 30.9 | 69.1 | 28 | 0.0 | — | 9.0 | — | 30.02 | — | 0 |
| 2006 | 2006-04-21 | 60.6 | 41.0 | 73.9 | 19 | 0.0 | — | 11.1 | — | 29.82 | — | 0 |
| 2007 | 2007-04-21 | 48.2 | 34.0 | 59.0 | 46 | — | — | 12.4 | — | 29.82 | — | 4 |
| 2008 | 2008-04-21 | 53.6 | 39.0 | 66.9 | 21 | 0.0 | — | 14.3 | — | 29.86 | — | 0 |
| 2009 | 2009-04-21 | 65.1 | 44.1 | 81.0 | 20 | 0.0 | — | 9.4 | — | 29.98 | — | 0 |
| 2010 | 2010-04-21 | 46.2 | 37.9 | 57.0 | 57 | — | — | 19.4 | — | 29.58 | — | 5 |
| 2011 | 2011-04-21 | 61.2 | 46.9 | 72.0 | 32 | 0.0 | — | 18.3 | — | 29.81 | — | 0 |
| 2012 | 2012-04-21 | 67.8 | 48.0 | 84.9 | 25 | 0.0 | — | 8.2 | — | 29.91 | — | 0 |
| 2013 | 2013-04-21 | 59.2 | 39.0 | 78.1 | 19 | 0.0 | — | 11.4 | — | 29.96 | — | 0 |
| 2014 | 2014-04-21 | 64.9 | 48.0 | 79.0 | 33 | 0.0 | — | 10.6 | — | 29.97 | — | 2 |
| 2015 | 2015-04-21 | 58.8 | 43.0 | 71.1 | 22 | 0.0 | — | 14.5 | — | 29.77 | — | 0 |
| 2016 | 2016-04-21 | 62.2 | 44.1 | 78.1 | 20 | 0.0 | — | 11.2 | — | 29.88 | — | 0 |
| 2017 | 2017-04-21 | 60.3 | 43.0 | 77.0 | 23 | 0.0 | — | 13.1 | — | 29.90 | — | 0 |
| 2018 | 2018-04-21 | 57.0 | 37.0 | 75.0 | 33 | — | — | 10.8 | — | 30.01 | — | 0 |
| 2019 | 2019-04-21 | 59.4 | 46.9 | 70.0 | 26 | 0.0 | — | 16.2 | — | 29.77 | — | 0 |
| 2020 | 2020-04-21 | 51.1 | 44.1 | 61.0 | 54 | — | — | 11.0 | — | 29.91 | — | — |
| 2021 | 2021-04-21 | 58.3 | 48.0 | 66.9 | 17 | 0.0 | — | 23.8 | — | 29.67 | — | 0 |
| 2022 | 2022-04-21 | 61.9 | 50.0 | 72.0 | 28 | 0.0 | — | 17.1 | — | 29.83 | — | 0 |
| 2023 | 2023-04-21 | 56.3 | 36.0 | 73.9 | 26 | 0.0 | — | 9.5 | — | 30.07 | — | 0 |
| 2024 | 2024-04-21 | 65.1 | 46.0 | 79.0 | 26 | 0.0 | — | 10.1 | — | 29.93 | — | 0 |
| 2025 | 2025-04-21 | 57.7 | 41.0 | 73.0 | 28 | 0.0 | — | 8.6 | — | 29.91 | — | 0 |